AFR79 EHRD-LFPG
Flight info
| Callsign | AFR79 |
|---|---|
| Flight time | 0h 59m |
| Altitude | 31000 |
| Route | WOODY N872 DENOX UZ319 MOPIL |
| Aircraft | A20N/M-SDE2E3FGHIRWXY/LB1 |
Departure
| Time | 2026-05-08 12:03 |
|---|---|
| Airport | Rotterdam The Hague Airport (EHRD) |
Arrival
| Time | 2026-05-08 13:03 |
|---|---|
| Airport | Charles de Gaulle International Airport (LFPG) |
| Time | Latitude | Longitude | Altitude | Speed | Heading |
|---|---|---|---|---|---|
| 2026-05-08 11:48 | 51.95015 | 4.43509 | -7 ft | 0 kts | 327° |
| 2026-05-08 12:00 | 51.95032 | 4.43503 | -7 ft | 6 kts | 359° |
| 2026-05-08 12:00 | 51.95069 | 4.43549 | -7 ft | 9 kts | 44° |
| 2026-05-08 12:00 | 51.95127 | 4.43557 | -6 ft | 10 kts | 333° |
| 2026-05-08 12:00 | 51.95192 | 4.43485 | -6 ft | 13 kts | 324° |
| 2026-05-08 12:01 | 51.95224 | 4.43365 | -7 ft | 12 kts | 248° |
| 2026-05-08 12:01 | 51.95176 | 4.43232 | -7 ft | 15 kts | 238° |
| 2026-05-08 12:01 | 51.95124 | 4.43079 | -5 ft | 11 kts | 245° |
| 2026-05-08 12:01 | 51.95119 | 4.43058 | -5 ft | 0 kts | 249° |
| 2026-05-08 12:02 | 51.95113 | 4.43025 | -5 ft | 10 kts | 256° |
| 2026-05-08 12:02 | 51.95159 | 4.42893 | -4 ft | 17 kts | 323° |
| 2026-05-08 12:02 | 51.95237 | 4.42897 | -3 ft | 9 kts | 57° |
| 2026-05-08 12:03 | 51.95328 | 4.43116 | -4 ft | 55 kts | 58° |
| 2026-05-08 12:03 | 51.95667 | 4.43969 | -6 ft | 122 kts | 56° |
| 2026-05-08 12:03 | 51.96221 | 4.45280 | 284 ft | 142 kts | 54° |
| 2026-05-08 12:03 | 51.96811 | 4.46561 | 973 ft | 141 kts | 52° |
| 2026-05-08 12:04 | 51.97390 | 4.47820 | 1661 ft | 142 kts | 54° |
| 2026-05-08 12:04 | 51.97917 | 4.49191 | 2259 ft | 143 kts | 61° |
| 2026-05-08 12:04 | 51.98366 | 4.50629 | 2812 ft | 148 kts | 63° |
| 2026-05-08 12:04 | 51.98869 | 4.52328 | 3024 ft | 190 kts | 64° |
| 2026-05-08 12:05 | 51.99510 | 4.54529 | 3008 ft | 238 kts | 64° |
| 2026-05-08 12:05 | 52.00147 | 4.57205 | 3371 ft | 264 kts | 80° |
| 2026-05-08 12:05 | 52.00045 | 4.60129 | 4311 ft | 262 kts | 105° |
| 2026-05-08 12:05 | 51.99190 | 4.62720 | 4815 ft | 266 kts | 131° |
| 2026-05-08 12:06 | 51.97707 | 4.64525 | 5046 ft | 267 kts | 152° |
| 2026-05-08 12:06 | 51.96040 | 4.65815 | 5126 ft | 268 kts | 156° |
| 2026-05-08 12:06 | 51.94263 | 4.66663 | 5130 ft | 267 kts | 176° |
| 2026-05-08 12:06 | 51.92417 | 4.66246 | 5125 ft | 271 kts | 201° |
| 2026-05-08 12:07 | 51.90888 | 4.64578 | 5132 ft | 266 kts | 230° |
| 2026-05-08 12:07 | 51.89846 | 4.62106 | 5127 ft | 268 kts | 239° |
| 2026-05-08 12:07 | 51.88825 | 4.59532 | 5127 ft | 267 kts | 238° |
| 2026-05-08 12:07 | 51.87757 | 4.57083 | 5150 ft | 269 kts | 228° |
| 2026-05-08 12:08 | 51.86794 | 4.55799 | 5358 ft | 271 kts | 211° |
| 2026-05-08 12:08 | 51.84448 | 4.54506 | 6608 ft | 269 kts | 194° |
| 2026-05-08 12:08 | 51.82612 | 4.53762 | 7611 ft | 272 kts | 195° |
| 2026-05-08 12:08 | 51.80766 | 4.52992 | 8568 ft | 276 kts | 195° |
| 2026-05-08 12:09 | 51.78888 | 4.52214 | 9555 ft | 280 kts | 195° |
| 2026-05-08 12:09 | 51.76975 | 4.51429 | 10481 ft | 285 kts | 195° |
| 2026-05-08 12:09 | 51.74975 | 4.50610 | 10894 ft | 308 kts | 195° |
| 2026-05-08 12:09 | 51.72818 | 4.49728 | 11242 ft | 330 kts | 195° |
| 2026-05-08 12:10 | 51.70571 | 4.48811 | 11949 ft | 337 kts | 195° |
| 2026-05-08 12:10 | 51.69056 | 4.48194 | 12514 ft | 340 kts | 195° |
| 2026-05-08 12:10 | 51.66759 | 4.47258 | 13347 ft | 344 kts | 195° |
| 2026-05-08 12:10 | 51.64396 | 4.46296 | 14147 ft | 349 kts | 195° |
| 2026-05-08 12:11 | 51.62055 | 4.45343 | 14903 ft | 352 kts | 195° |
| 2026-05-08 12:11 | 51.59639 | 4.44360 | 15683 ft | 355 kts | 195° |
| 2026-05-08 12:11 | 51.57260 | 4.43393 | 16433 ft | 358 kts | 195° |
| 2026-05-08 12:11 | 51.54825 | 4.42404 | 17195 ft | 361 kts | 195° |
| 2026-05-08 12:12 | 51.52386 | 4.41414 | 17949 ft | 365 kts | 195° |
| 2026-05-08 12:12 | 51.49893 | 4.40403 | 18650 ft | 368 kts | 195° |
| 2026-05-08 12:12 | 51.47412 | 4.39397 | 19278 ft | 371 kts | 195° |
| 2026-05-08 12:12 | 51.44899 | 4.38379 | 19908 ft | 374 kts | 195° |
| 2026-05-08 12:13 | 51.42370 | 4.37354 | 20527 ft | 378 kts | 195° |
| 2026-05-08 12:13 | 51.39875 | 4.36068 | 21144 ft | 380 kts | 202° |
| 2026-05-08 12:13 | 51.37455 | 4.34299 | 21766 ft | 384 kts | 206° |
| 2026-05-08 12:13 | 51.35016 | 4.32426 | 22380 ft | 387 kts | 206° |
| 2026-05-08 12:14 | 51.32583 | 4.30568 | 22898 ft | 391 kts | 206° |
| 2026-05-08 12:14 | 51.30131 | 4.28703 | 23072 ft | 392 kts | 206° |
| 2026-05-08 12:14 | 51.27679 | 4.26841 | 23102 ft | 392 kts | 206° |
| 2026-05-08 12:14 | 51.25191 | 4.24954 | 23103 ft | 391 kts | 206° |
| 2026-05-08 12:15 | 51.22739 | 4.23097 | 23100 ft | 391 kts | 206° |
| 2026-05-08 12:15 | 51.20279 | 4.21236 | 23103 ft | 391 kts | 206° |
| 2026-05-08 12:15 | 51.17811 | 4.19370 | 23109 ft | 392 kts | 206° |
| 2026-05-08 12:15 | 51.15298 | 4.17693 | 23104 ft | 392 kts | 200° |
| 2026-05-08 12:16 | 51.12721 | 4.16291 | 23105 ft | 392 kts | 200° |
| 2026-05-08 12:16 | 51.10144 | 4.14887 | 23099 ft | 392 kts | 200° |
| 2026-05-08 12:16 | 51.07563 | 4.13476 | 23104 ft | 392 kts | 200° |
| 2026-05-08 12:16 | 51.04976 | 4.12061 | 23104 ft | 392 kts | 200° |
| 2026-05-08 12:17 | 51.02397 | 4.10651 | 23101 ft | 392 kts | 200° |
| 2026-05-08 12:17 | 50.99816 | 4.09241 | 23103 ft | 392 kts | 200° |
| 2026-05-08 12:17 | 50.97256 | 4.07844 | 23105 ft | 392 kts | 200° |
| 2026-05-08 12:17 | 50.94669 | 4.06433 | 23104 ft | 392 kts | 200° |
| 2026-05-08 12:18 | 50.92101 | 4.05035 | 23103 ft | 392 kts | 200° |
| 2026-05-08 12:18 | 50.89455 | 4.03796 | 23098 ft | 392 kts | 193° |
| 2026-05-08 12:18 | 50.86748 | 4.03167 | 23101 ft | 394 kts | 185° |
| 2026-05-08 12:18 | 50.84031 | 4.03156 | 23101 ft | 395 kts | 177° |
| 2026-05-08 12:19 | 50.81275 | 4.03495 | 23096 ft | 395 kts | 177° |
| 2026-05-08 12:19 | 50.78538 | 4.03814 | 23098 ft | 395 kts | 177° |
| 2026-05-08 12:19 | 50.75797 | 4.04122 | 23092 ft | 395 kts | 177° |
| 2026-05-08 12:19 | 50.73053 | 4.04425 | 23091 ft | 395 kts | 177° |
| 2026-05-08 12:20 | 50.70377 | 4.04719 | 23088 ft | 395 kts | 177° |
| 2026-05-08 12:20 | 50.67630 | 4.05021 | 23089 ft | 395 kts | 177° |
| 2026-05-08 12:20 | 50.64889 | 4.05321 | 23092 ft | 395 kts | 177° |
| 2026-05-08 12:20 | 50.62182 | 4.05619 | 23097 ft | 395 kts | 177° |
| 2026-05-08 12:21 | 50.59413 | 4.05922 | 23091 ft | 395 kts | 178° |
| 2026-05-08 12:21 | 50.56695 | 4.06220 | 23095 ft | 395 kts | 178° |
| 2026-05-08 12:21 | 50.53946 | 4.06515 | 23096 ft | 395 kts | 178° |
| 2026-05-08 12:21 | 50.51198 | 4.06816 | 23096 ft | 395 kts | 177° |
| 2026-05-08 12:22 | 50.48466 | 4.07118 | 23094 ft | 395 kts | 177° |
| 2026-05-08 12:22 | 50.45720 | 4.07420 | 23096 ft | 395 kts | 177° |
| 2026-05-08 12:22 | 50.42974 | 4.07721 | 23093 ft | 395 kts | 177° |
| 2026-05-08 12:22 | 50.40212 | 4.08022 | 23095 ft | 395 kts | 177° |
| 2026-05-08 12:23 | 50.37482 | 4.08320 | 23091 ft | 395 kts | 178° |
| 2026-05-08 12:23 | 50.34756 | 4.08617 | 23091 ft | 395 kts | 178° |
| 2026-05-08 12:23 | 50.32013 | 4.08915 | 23092 ft | 395 kts | 178° |
| 2026-05-08 12:23 | 50.29272 | 4.09213 | 23088 ft | 395 kts | 178° |
| 2026-05-08 12:24 | 50.26518 | 4.09511 | 23088 ft | 395 kts | 178° |
| 2026-05-08 12:24 | 50.23791 | 4.09806 | 23086 ft | 395 kts | 178° |
| 2026-05-08 12:24 | 50.21045 | 4.10103 | 23087 ft | 395 kts | 178° |
| 2026-05-08 12:24 | 50.18307 | 4.10399 | 23090 ft | 395 kts | 178° |
| 2026-05-08 12:25 | 50.15532 | 4.10691 | 23085 ft | 395 kts | 179° |
| 2026-05-08 12:25 | 50.12795 | 4.10658 | 23088 ft | 394 kts | 184° |
| 2026-05-08 12:25 | 50.10078 | 4.10443 | 23084 ft | 394 kts | 184° |
| 2026-05-08 12:25 | 50.07326 | 4.10231 | 23086 ft | 394 kts | 184° |
| 2026-05-08 12:26 | 50.04570 | 4.10023 | 23086 ft | 394 kts | 184° |
| 2026-05-08 12:26 | 50.01855 | 4.09820 | 23068 ft | 393 kts | 184° |
| 2026-05-08 12:26 | 49.99127 | 4.09618 | 22807 ft | 391 kts | 184° |
| 2026-05-08 12:26 | 49.96422 | 4.09419 | 22328 ft | 388 kts | 184° |
| 2026-05-08 12:27 | 49.93722 | 4.09220 | 21757 ft | 385 kts | 184° |
| 2026-05-08 12:27 | 49.91065 | 4.09025 | 21186 ft | 382 kts | 184° |
| 2026-05-08 12:27 | 49.88412 | 4.08830 | 20607 ft | 379 kts | 184° |
| 2026-05-08 12:27 | 49.85784 | 4.08637 | 20062 ft | 376 kts | 184° |
| 2026-05-08 12:28 | 49.83184 | 4.08445 | 19503 ft | 373 kts | 184° |
| 2026-05-08 12:28 | 49.80596 | 4.08255 | 18957 ft | 370 kts | 184° |
| 2026-05-08 12:28 | 49.78041 | 4.08068 | 18415 ft | 367 kts | 184° |
| 2026-05-08 12:28 | 49.75500 | 4.07882 | 17822 ft | 364 kts | 184° |
| 2026-05-08 12:29 | 49.72967 | 4.07696 | 17232 ft | 361 kts | 184° |
| 2026-05-08 12:29 | 49.70489 | 4.07513 | 16659 ft | 359 kts | 184° |
| 2026-05-08 12:29 | 49.67986 | 4.07329 | 16089 ft | 356 kts | 184° |
| 2026-05-08 12:29 | 49.65548 | 4.07151 | 15552 ft | 354 kts | 184° |
| 2026-05-08 12:30 | 49.63083 | 4.06964 | 15003 ft | 351 kts | 185° |
| 2026-05-08 12:30 | 49.60728 | 4.06099 | 14453 ft | 347 kts | 205° |
| 2026-05-08 12:30 | 49.58724 | 4.04030 | 13911 ft | 345 kts | 225° |
| 2026-05-08 12:30 | 49.57293 | 4.01133 | 13350 ft | 342 kts | 237° |
| 2026-05-08 12:31 | 49.56013 | 3.98068 | 12824 ft | 339 kts | 237° |
| 2026-05-08 12:31 | 49.54745 | 3.95023 | 12276 ft | 337 kts | 237° |
| 2026-05-08 12:31 | 49.53480 | 3.92000 | 11751 ft | 334 kts | 236° |
| 2026-05-08 12:31 | 49.52223 | 3.89010 | 11251 ft | 332 kts | 236° |
| 2026-05-08 12:32 | 49.50957 | 3.86010 | 10778 ft | 329 kts | 236° |
| 2026-05-08 12:32 | 49.49732 | 3.83113 | 10593 ft | 317 kts | 236° |
| 2026-05-08 12:32 | 49.48551 | 3.80320 | 10469 ft | 304 kts | 236° |
| 2026-05-08 12:32 | 49.47568 | 3.77548 | 10363 ft | 292 kts | 244° |
| 2026-05-08 12:33 | 49.46448 | 3.75042 | 10164 ft | 280 kts | 223° |
| 2026-05-08 12:33 | 49.45206 | 3.72766 | 10048 ft | 280 kts | 239° |
| 2026-05-08 12:33 | 49.44546 | 3.69966 | 10065 ft | 286 kts | 262° |
| 2026-05-08 12:33 | 49.44632 | 3.66917 | 10079 ft | 288 kts | 275° |
| 2026-05-08 12:34 | 49.44795 | 3.63850 | 10387 ft | 289 kts | 267° |
| 2026-05-08 12:34 | 49.44565 | 3.60750 | 11218 ft | 289 kts | 256° |
| 2026-05-08 12:34 | 49.44079 | 3.57779 | 11745 ft | 290 kts | 254° |
| 2026-05-08 12:34 | 49.43569 | 3.54734 | 11979 ft | 292 kts | 254° |
| 2026-05-08 12:35 | 49.43063 | 3.51728 | 12059 ft | 292 kts | 254° |
| 2026-05-08 12:35 | 49.42549 | 3.48696 | 12070 ft | 292 kts | 254° |
| 2026-05-08 12:35 | 49.42036 | 3.45714 | 12066 ft | 291 kts | 252° |
| 2026-05-08 12:35 | 49.41323 | 3.42781 | 12068 ft | 291 kts | 246° |
| 2026-05-08 12:36 | 49.40547 | 3.39915 | 12066 ft | 292 kts | 246° |
| 2026-05-08 12:36 | 49.39773 | 3.37034 | 12070 ft | 291 kts | 247° |
| 2026-05-08 12:36 | 49.39004 | 3.34158 | 12063 ft | 291 kts | 247° |
| 2026-05-08 12:36 | 49.38235 | 3.31287 | 12067 ft | 291 kts | 247° |
| 2026-05-08 12:37 | 49.37485 | 3.28485 | 12070 ft | 291 kts | 247° |
| 2026-05-08 12:37 | 49.36719 | 3.25629 | 12067 ft | 291 kts | 247° |
| 2026-05-08 12:37 | 49.35949 | 3.22763 | 12067 ft | 291 kts | 247° |
| 2026-05-08 12:37 | 49.35179 | 3.19899 | 12067 ft | 291 kts | 246° |
| 2026-05-08 12:38 | 49.34408 | 3.17042 | 12063 ft | 291 kts | 246° |
| 2026-05-08 12:38 | 49.33628 | 3.14154 | 12066 ft | 291 kts | 246° |
| 2026-05-08 12:38 | 49.32851 | 3.11280 | 12060 ft | 291 kts | 246° |
| 2026-05-08 12:38 | 49.32083 | 3.08443 | 12067 ft | 291 kts | 247° |
| 2026-05-08 12:39 | 49.31302 | 3.05553 | 12066 ft | 291 kts | 247° |
| 2026-05-08 12:39 | 49.30532 | 3.02715 | 12067 ft | 291 kts | 246° |
| 2026-05-08 12:39 | 49.29753 | 2.99846 | 12067 ft | 291 kts | 246° |
| 2026-05-08 12:39 | 49.28969 | 2.96965 | 12062 ft | 291 kts | 246° |
| 2026-05-08 12:40 | 49.28190 | 2.94105 | 12065 ft | 291 kts | 246° |
| 2026-05-08 12:40 | 49.27419 | 2.91273 | 12063 ft | 291 kts | 246° |
| 2026-05-08 12:40 | 49.26630 | 2.88382 | 12064 ft | 291 kts | 246° |
| 2026-05-08 12:40 | 49.25853 | 2.85536 | 12059 ft | 291 kts | 246° |
| 2026-05-08 12:41 | 49.25125 | 2.82875 | 12059 ft | 291 kts | 246° |
| 2026-05-08 12:41 | 49.24539 | 2.80735 | 12059 ft | 291 kts | 246° |
| 2026-05-08 12:41 | 49.23739 | 2.77817 | 12059 ft | 291 kts | 246° |
| 2026-05-08 12:41 | 49.22950 | 2.74940 | 12056 ft | 291 kts | 246° |
| 2026-05-08 12:42 | 49.22169 | 2.72096 | 12055 ft | 291 kts | 246° |
| 2026-05-08 12:42 | 49.21387 | 2.69258 | 12056 ft | 291 kts | 246° |
| 2026-05-08 12:42 | 49.20603 | 2.66411 | 12055 ft | 291 kts | 246° |
| 2026-05-08 12:42 | 49.19819 | 2.63563 | 11968 ft | 289 kts | 246° |
| 2026-05-08 12:43 | 49.19036 | 2.60726 | 11664 ft | 288 kts | 246° |
| 2026-05-08 12:43 | 49.18367 | 2.57886 | 11300 ft | 287 kts | 255° |
| 2026-05-08 12:43 | 49.18038 | 2.54868 | 10922 ft | 285 kts | 265° |
| 2026-05-08 12:43 | 49.17979 | 2.51834 | 10537 ft | 285 kts | 268° |
| 2026-05-08 12:44 | 49.17923 | 2.48827 | 10147 ft | 284 kts | 268° |
| 2026-05-08 12:44 | 49.17860 | 2.45810 | 9755 ft | 282 kts | 268° |
| 2026-05-08 12:44 | 49.17794 | 2.42845 | 9512 ft | 275 kts | 268° |
| 2026-05-08 12:44 | 49.17729 | 2.39918 | 9014 ft | 277 kts | 268° |
| 2026-05-08 12:45 | 49.17662 | 2.36961 | 8521 ft | 280 kts | 268° |
| 2026-05-08 12:45 | 49.17601 | 2.33988 | 8184 ft | 277 kts | 268° |
| 2026-05-08 12:45 | 49.17554 | 2.31038 | 8081 ft | 280 kts | 269° |
| 2026-05-08 12:45 | 49.17511 | 2.28093 | 8051 ft | 279 kts | 267° |
| 2026-05-08 12:46 | 49.17065 | 2.25237 | 7910 ft | 278 kts | 243° |
| 2026-05-08 12:46 | 49.15964 | 2.22822 | 7573 ft | 277 kts | 232° |
| 2026-05-08 12:46 | 49.14765 | 2.20502 | 7190 ft | 277 kts | 232° |
| 2026-05-08 12:46 | 49.13588 | 2.18221 | 7041 ft | 266 kts | 232° |
| 2026-05-08 12:47 | 49.12482 | 2.16079 | 6918 ft | 255 kts | 232° |
| 2026-05-08 12:47 | 49.11392 | 2.13967 | 6614 ft | 252 kts | 232° |
| 2026-05-08 12:47 | 49.10299 | 2.11855 | 6162 ft | 252 kts | 232° |
| 2026-05-08 12:47 | 49.09594 | 2.10489 | 5874 ft | 251 kts | 232° |
| 2026-05-08 12:48 | 49.08183 | 2.07748 | 5573 ft | 240 kts | 232° |
| 2026-05-08 12:48 | 49.07505 | 2.06424 | 5494 ft | 232 kts | 232° |
| 2026-05-08 12:48 | 49.06538 | 2.04535 | 5378 ft | 221 kts | 232° |
| 2026-05-08 12:48 | 49.05608 | 2.02714 | 5111 ft | 219 kts | 232° |
| 2026-05-08 12:49 | 49.04681 | 2.00890 | 4841 ft | 219 kts | 231° |
| 2026-05-08 12:49 | 49.03533 | 1.99398 | 4512 ft | 217 kts | 204° |
| 2026-05-08 12:49 | 49.02161 | 1.98463 | 4301 ft | 211 kts | 201° |
| 2026-05-08 12:49 | 49.00845 | 1.97595 | 4027 ft | 205 kts | 201° |
| 2026-05-08 12:50 | 48.99480 | 1.96697 | 3974 ft | 217 kts | 201° |
| 2026-05-08 12:50 | 48.98111 | 1.95793 | 3965 ft | 215 kts | 201° |
| 2026-05-08 12:50 | 48.96739 | 1.94884 | 3980 ft | 216 kts | 201° |
| 2026-05-08 12:50 | 48.95361 | 1.93964 | 3968 ft | 216 kts | 202° |
| 2026-05-08 12:51 | 48.93976 | 1.93042 | 3975 ft | 216 kts | 201° |
| 2026-05-08 12:51 | 48.91245 | 1.91233 | 3977 ft | 216 kts | 201° |
| 2026-05-08 12:51 | 48.89858 | 1.90316 | 3962 ft | 215 kts | 201° |
| 2026-05-08 12:52 | 48.88459 | 1.89575 | 3967 ft | 213 kts | 184° |
| 2026-05-08 12:52 | 48.86064 | 1.91514 | 3971 ft | 202 kts | 114° |
| 2026-05-08 12:52 | 48.85885 | 1.93579 | 3974 ft | 203 kts | 79° |
| 2026-05-08 12:53 | 48.86535 | 1.95462 | 3978 ft | 204 kts | 52° |
| 2026-05-08 12:53 | 48.87438 | 1.97148 | 3967 ft | 204 kts | 52° |
| 2026-05-08 12:53 | 48.88335 | 1.98807 | 3975 ft | 206 kts | 51° |
| 2026-05-08 12:53 | 48.89230 | 2.00471 | 3969 ft | 204 kts | 52° |
| 2026-05-08 12:54 | 48.90142 | 2.02159 | 3974 ft | 206 kts | 52° |
| 2026-05-08 12:54 | 48.91051 | 2.03843 | 3973 ft | 206 kts | 52° |
| 2026-05-08 12:54 | 48.91958 | 2.05517 | 3968 ft | 204 kts | 51° |
| 2026-05-08 12:54 | 48.92867 | 2.07208 | 3973 ft | 205 kts | 52° |
| 2026-05-08 12:55 | 48.93763 | 2.08877 | 3975 ft | 206 kts | 52° |
| 2026-05-08 12:55 | 48.94662 | 2.10550 | 3969 ft | 206 kts | 51° |
| 2026-05-08 12:55 | 48.95570 | 2.12240 | 3969 ft | 206 kts | 52° |
| 2026-05-08 12:55 | 48.96429 | 2.13959 | 3971 ft | 205 kts | 59° |
| 2026-05-08 12:56 | 48.96976 | 2.15861 | 3968 ft | 187 kts | 74° |
| 2026-05-08 12:56 | 48.97220 | 2.17769 | 3968 ft | 183 kts | 82° |
| 2026-05-08 12:56 | 48.97342 | 2.19662 | 3975 ft | 184 kts | 85° |
| 2026-05-08 12:56 | 48.97443 | 2.21594 | 3966 ft | 183 kts | 85° |
| 2026-05-08 12:57 | 48.97542 | 2.23473 | 3971 ft | 185 kts | 85° |
| 2026-05-08 12:57 | 48.97645 | 2.25415 | 3972 ft | 184 kts | 85° |
| 2026-05-08 12:57 | 48.97744 | 2.27280 | 3966 ft | 176 kts | 85° |
| 2026-05-08 12:57 | 48.97841 | 2.29130 | 3884 ft | 176 kts | 85° |
| 2026-05-08 12:58 | 48.97939 | 2.30959 | 3660 ft | 170 kts | 85° |
| 2026-05-08 12:58 | 48.98029 | 2.32659 | 3447 ft | 151 kts | 85° |
| 2026-05-08 12:58 | 48.98107 | 2.34131 | 3252 ft | 134 kts | 84° |
| 2026-05-08 12:58 | 48.98181 | 2.35516 | 3080 ft | 132 kts | 85° |
| 2026-05-08 12:59 | 48.98257 | 2.36960 | 2901 ft | 139 kts | 85° |
| 2026-05-08 12:59 | 48.98333 | 2.38417 | 2711 ft | 134 kts | 85° |
| 2026-05-08 12:59 | 48.98408 | 2.39818 | 2531 ft | 133 kts | 85° |
| 2026-05-08 12:59 | 48.98483 | 2.41243 | 2349 ft | 138 kts | 84° |
| 2026-05-08 13:00 | 48.98560 | 2.42689 | 2168 ft | 136 kts | 85° |
| 2026-05-08 13:00 | 48.98635 | 2.44130 | 1954 ft | 136 kts | 85° |
| 2026-05-08 13:00 | 48.98710 | 2.45559 | 1748 ft | 136 kts | 85° |
| 2026-05-08 13:00 | 48.98776 | 2.46974 | 1568 ft | 134 kts | 85° |
| 2026-05-08 13:01 | 48.98849 | 2.48387 | 1419 ft | 133 kts | 85° |
| 2026-05-08 13:01 | 48.98926 | 2.49799 | 1316 ft | 133 kts | 85° |
| 2026-05-08 13:01 | 48.99000 | 2.51204 | 1097 ft | 135 kts | 85° |
| 2026-05-08 13:01 | 48.99075 | 2.52661 | 908 ft | 139 kts | 85° |
| 2026-05-08 13:02 | 48.99150 | 2.54107 | 685 ft | 134 kts | 85° |
| 2026-05-08 13:02 | 48.99227 | 2.55514 | 532 ft | 133 kts | 84° |
| 2026-05-08 13:02 | 48.99306 | 2.56905 | 368 ft | 132 kts | 84° |
| 2026-05-08 13:02 | 48.99378 | 2.58115 | 354 ft | 85 kts | 84° |
| 2026-05-08 13:03 | 48.99413 | 2.58710 | 359 ft | 34 kts | 85° |
| 2026-05-08 13:03 | 48.99436 | 2.59038 | 351 ft | 26 kts | 80° |
| 2026-05-08 13:03 | 48.99483 | 2.59309 | 351 ft | 26 kts | 65° |
| 2026-05-08 13:03 | 48.99561 | 2.59548 | 358 ft | 25 kts | 64° |
| 2026-05-08 13:04 | 48.99669 | 2.59688 | 355 ft | 21 kts | 353° |
| 2026-05-08 13:04 | 48.99822 | 2.59662 | 354 ft | 23 kts | 355° |
| 2026-05-08 13:04 | 48.99918 | 2.59652 | 355 ft | 0 kts | 360° |
| 2026-05-08 13:05 | 48.99922 | 2.59652 | 355 ft | 3 kts | 0° |
| 2026-05-08 13:05 | 48.99984 | 2.59649 | 357 ft | 14 kts | 354° |
| 2026-05-08 13:05 | 49.00103 | 2.59630 | 359 ft | 19 kts | 354° |
| 2026-05-08 13:06 | 49.00245 | 2.59611 | 357 ft | 22 kts | 355° |
| 2026-05-08 13:06 | 49.00402 | 2.59592 | 359 ft | 23 kts | 356° |
| 2026-05-08 13:06 | 49.00568 | 2.59578 | 355 ft | 25 kts | 357° |
| 2026-05-08 13:06 | 49.00742 | 2.59552 | 360 ft | 26 kts | 356° |
| 2026-05-08 13:07 | 49.00878 | 2.59514 | 359 ft | 15 kts | 311° |
| 2026-05-08 13:07 | 49.00885 | 2.59408 | 354 ft | 11 kts | 270° |
| 2026-05-08 13:07 | 49.00880 | 2.59277 | 361 ft | 14 kts | 265° |
| 2026-05-08 13:07 | 49.00872 | 2.59111 | 357 ft | 17 kts | 266° |
| 2026-05-08 13:08 | 49.00864 | 2.58915 | 354 ft | 20 kts | 267° |
| 2026-05-08 13:08 | 49.00854 | 2.58689 | 358 ft | 22 kts | 262° |
| 2026-05-08 13:08 | 49.00836 | 2.58445 | 358 ft | 25 kts | 264° |
| 2026-05-08 13:08 | 49.00821 | 2.58173 | 359 ft | 27 kts | 266° |
| 2026-05-08 13:09 | 49.00809 | 2.57918 | 361 ft | 24 kts | 263° |
| 2026-05-08 13:09 | 49.00790 | 2.57718 | 361 ft | 16 kts | 253° |
| 2026-05-08 13:09 | 49.00713 | 2.57742 | 361 ft | 9 kts | 127° |
| 2026-05-08 13:09 | 49.00695 | 2.57778 | 355 ft | 0 kts | 128° |